Terminal Aerodrome Forecast
Issued by NWS

Home | Current Version | Previous Version | Text Only | Print | Product List | Glossary On
Versions: 1 2 3 4 5 6 7 8 9 10 11 12 13 14 15 16 17 18 19 20 21 22 23 24 25 26 27 28 29 30 31 32 33
475
FTUS43 KDLH 190540
TAFHIB
TAF
KHIB 190540Z 1906/2006 VRB02KT 6SM BR SCT250
     FM190900 VRB02KT 5SM BR SCT007
      TEMPO 1911/1915 2SM BR BKN007
     FM191500 18005KT 5SM BR OVC007
     FM200100 17004KT 5SM -FZDZ BR OVC007=

USA.gov is the U.S. government's official web portal to all federal, state and local government web resources and services.